San Luis Obispo, CA

4:48 PM PDT on August 20, 2014 (GMT -0700)
Vandenberg AFB | Change Station
CLOSE
Current Station
Airport
Location: Vandenberg AFB,
Elevation: 367 ft
Nearby Weather Stations

Elev 367 ft 34.74 °N, 120.58 °W | Updated 53 minutes ago

Partly Cloudy
Partly Cloudy
69 °F
Feels Like 69 °F
N
10
Wind Variable Wind from NW

Today
High -- | Low -- °F
--% Chance of Precip.
Yesterday
High -- | Low -- °F
Precip. -- in
6:26 AM 7:45 PM
Waning Crescent, 18% visible
Pressure 29.92 in
Visibility 10.0 miles
Clouds Few 2500 ft
Dew Point 55 °F
Humidity 61%
Rainfall 0.00 in
Snow Depth Not available.
UV 6 out of 12
Pollen 7.80 out of 12
Air Quality Not available.
Flu Activity Not available.
METAR KVBG 202255Z 32009KT 10SM FEW025 21/13 A2994 RMK AO2A SLP130 T02060128

More Conditions Fewer Conditions

Pressure 29.92 in
Visibility 10.0 miles
Clouds Few 2500 ft
Dew Point 55 °F
Humidity 61%
Rainfall 0.00 in
Snow Depth Not available.
UV 6 out of 12
Pollen 7.80 out of 12
Air Quality Not available.
Flu Activity Not available.
METAR KVBG 202255Z 32009KT 10SM FEW025 21/13 A2994 RMK AO2A SLP130 T02060128

More Conditions Fewer Conditions

10-Day Weather Forecast

Almanac

Astronomy

Aug. 20, 2014 Rise Set
Actual Time 6:26 AM PDT 7:45 PM PDT
Civil Twilight 5:59 AM PDT 8:11 PM PDT
Nautical Twilight 5:27 AM PDT 8:43 PM PDT
Astronomical Twilight 4:54 AM PDT 9:16 PM PDT
Moon 2:14 AM PDT 4:30 PM PDT
Length of Visible Light 14h 12m
Length of Day
13h 19m
Tomorrow will be 2m 0s shorter.
Waning Crescent, 18% of the Moon is Illuminated
Today
Waning Crescent
Aug 25
New
Sep 2
First Quarter
Sep 8
Full
Sep 15
Last Quarter

Today's Extremes

State Highs State Lows

Community

WunderPhotos

Upload Photos

1,745,801 photos uploaded!

Nearby

Snow Depth

Station Depth Elevation
Leavitt Lake 0 in 9400 ft
Leavitt Meadows 0 in 7200 ft
Adin Mountain 0 in 6200 ft
Cedar Pass 0 in 7100 ft

Earthquake Activity

City Distance Mag. Time & Date
King City, California 73 miles 2.7 10:26 PM PDT
2014-08-15
Malibu Beach, California 142 miles 3.4 10:03 AM PDT
2014-08-15
Kettleman City, California 64 miles 2.9 11:32 PM PDT
2014-08-14
King City, California 73 miles 2.9 8:01 PM PDT
2014-08-14
Minimum magnitude displayed is 2.5.

Coastal Water Temperatures

Place Temperature
No Stations Reporting

Nearby Weather Stations